Time;durP1;ratioP1;P1;durP2;ratioP2;P2;SDS_P1;SDS_P2;PMS_P1;PMS_P2;Temp;Humidity;BMP_temperature;BMP_pressure;BME280_temperature;BME280_humidity;BME280_pressure;Samples;Min_cycle;Max_cycle;Signal;HPM_P1;HPM_P2
2022/03/02 00:00:06;;;;;;;19.00;7.80;;;-4.40;99.90;;;;;;5068280;28;20473;-51
2022/03/02 00:03:31;;;;;;;14.48;7.32;;;-4.40;99.90;;;;;;5082590;28;20039;-50
2022/03/02 00:06:56;;;;;;;13.43;7.15;;;-4.40;99.90;;;;;;5064444;28;20048;-54
2022/03/02 00:10:22;;;;;;;20.45;7.45;;;-4.40;99.90;;;;;;5074504;28;20510;-52
2022/03/02 00:13:47;;;;;;;18.17;7.78;;;-4.50;99.90;;;;;;5078205;28;20043;-50
2022/03/02 00:17:13;;;;;;;11.88;6.22;;;-4.40;99.90;;;;;;5087316;28;20502;-52
2022/03/02 00:20:38;;;;;;;13.68;6.57;;;-4.50;99.90;;;;;;5080450;28;20141;-51
2022/03/02 00:24:04;;;;;;;16.13;7.28;;;-4.60;99.90;;;;;;5071427;28;20039;-53
2022/03/02 00:27:29;;;;;;;16.60;8.18;;;-4.60;99.90;;;;;;5048455;28;20041;-53
2022/03/02 00:30:54;;;;;;;15.27;7.75;;;-4.60;99.90;;;;;;5080708;28;20032;-46
2022/03/02 00:34:19;;;;;;;14.65;6.22;;;-4.50;99.90;;;;;;5069279;28;20043;-48
2022/03/02 00:37:44;;;;;;;15.75;6.93;;;-4.60;99.90;;;;;;5077419;28;20070;-48
2022/03/02 00:41:10;;;;;;;10.52;6.10;;;-4.60;99.90;;;;;;5083505;28;20032;-52
2022/03/02 00:44:35;;;;;;;15.98;6.97;;;-4.60;99.90;;;;;;5060588;28;20466;-49
2022/03/02 00:48:01;;;;;;;14.50;6.75;;;-4.60;99.90;;;;;;5077224;28;20101;-48
2022/03/02 00:51:26;;;;;;;13.18;5.78;;;-4.70;99.90;;;;;;5077022;28;20531;-48
2022/03/02 00:54:52;;;;;;;10.32;4.60;;;-4.80;99.90;;;;;;5072320;28;20075;-50
2022/03/02 00:58:17;;;;;;;14.00;6.35;;;-4.90;99.90;;;;;;5084783;28;20381;-48
2022/03/02 01:01:42;;;;;;;11.15;5.07;;;-5.00;99.90;;;;;;5077054;28;20028;-49
2022/03/02 01:05:08;;;;;;;14.25;6.93;;;-5.00;99.90;;;;;;5065749;28;20059;-48
2022/03/02 01:08:33;;;;;;;13.45;6.38;;;-5.00;99.90;;;;;;5088541;28;20248;-49
2022/03/02 01:11:58;;;;;;;11.65;5.95;;;-4.90;99.90;;;;;;5092240;28;20039;-52
2022/03/02 01:15:24;;;;;;;11.30;5.38;;;-4.90;99.90;;;;;;5080648;28;20501;-46
2022/03/02 01:18:49;;;;;;;8.82;5.00;;;-4.90;99.90;;;;;;5081423;28;20032;-47
2022/03/02 01:22:15;;;;;;;10.35;5.68;;;-5.00;99.90;;;;;;5072513;28;20119;-48
2022/03/02 01:25:40;;;;;;;14.43;6.30;;;-5.00;99.90;;;;;;5086282;28;20051;-47
2022/03/02 01:29:05;;;;;;;9.95;4.57;;;-5.00;99.90;;;;;;5091559;28;20062;-47
2022/03/02 01:32:31;;;;;;;12.80;5.68;;;-5.10;99.90;;;;;;5082173;28;20036;-45
2022/03/02 01:36:11;;;;;;;15.93;5.53;;;-5.10;99.90;;;;;;5085634;28;20470;-46
2022/03/02 01:39:37;;;;;;;10.70;4.32;;;-5.20;99.90;;;;;;5080243;28;20042;-46
2022/03/02 01:43:02;;;;;;;12.98;6.15;;;-5.10;99.90;;;;;;5080993;28;20487;-46
2022/03/02 01:46:27;;;;;;;13.43;5.97;;;-5.10;99.90;;;;;;5083198;28;20048;-46
2022/03/02 01:49:53;;;;;;;8.55;4.13;;;-5.10;99.90;;;;;;5051303;28;20033;-46
2022/03/02 01:53:18;;;;;;;10.43;5.13;;;-5.10;99.90;;;;;;5080248;28;20093;-47
2022/03/02 01:56:43;;;;;;;11.77;5.35;;;-5.10;99.90;;;;;;5068656;28;20040;-46
2022/03/02 02:00:09;;;;;;;15.07;5.88;;;-5.10;99.90;;;;;;5080143;28;20385;-45
2022/03/02 02:03:34;;;;;;;13.60;5.30;;;-5.10;99.90;;;;;;5087581;28;20036;-48
2022/03/02 02:06:59;;;;;;;11.52;5.88;;;-5.10;99.90;;;;;;5073730;28;20496;-47
2022/03/02 02:10:25;;;;;;;14.45;6.10;;;-5.00;99.90;;;;;;5087680;28;20052;-49
2022/03/02 02:13:50;;;;;;;9.73;5.03;;;-4.90;99.90;;;;;;5079483;28;20038;-47
2022/03/02 02:17:15;;;;;;;13.57;5.70;;;-4.80;99.90;;;;;;5071061;28;20177;-45
2022/03/02 02:20:41;;;;;;;20.48;6.25;;;-4.80;99.90;;;;;;5085200;28;20039;-45
2022/03/02 02:24:06;;;;;;;11.02;5.88;;;-4.70;99.90;;;;;;5061481;28;20036;-46
2022/03/02 02:27:32;;;;;;;12.15;5.13;;;-4.70;99.90;;;;;;5065008;28;20049;-47
2022/03/02 02:30:57;;;;;;;15.15;6.85;;;-4.50;99.90;;;;;;5077088;28;20024;-47
2022/03/02 02:34:22;;;;;;;13.27;6.20;;;-4.50;99.90;;;;;;5050251;28;20075;-46
2022/03/02 02:37:48;;;;;;;15.98;6.38;;;-4.40;99.90;;;;;;5085680;28;20058;-45
2022/03/02 02:41:15;;;;;;;13.10;6.35;;;-4.30;99.90;;;;;;5077151;28;20055;-46
2022/03/02 02:44:38;;;;;;;18.85;7.38;;;-4.30;99.90;;;;;;5043616;28;20455;-47
2022/03/02 02:48:04;;;;;;;13.90;5.40;;;-4.20;99.90;;;;;;5079364;28;20140;-46
2022/03/02 02:51:29;;;;;;;15.52;6.72;;;-4.10;99.90;;;;;;5084352;28;20484;-49
2022/03/02 02:54:54;;;;;;;11.98;6.05;;;-4.00;99.90;;;;;;5086480;28;20032;-50
2022/03/02 02:58:20;;;;;;;15.05;6.43;;;-3.90;99.90;;;;;;5084127;28;20040;-49
2022/03/02 03:01:45;;;;;;;11.60;5.80;;;-3.80;99.90;;;;;;5067000;28;20036;-48
2022/03/02 03:05:11;;;;;;;16.63;6.93;;;-3.80;99.90;;;;;;5084176;28;20028;-47
2022/03/02 03:08:36;;;;;;;10.38;4.88;;;-3.70;99.90;;;;;;5078423;28;20048;-47
2022/03/02 03:12:01;;;;;;;13.63;5.88;;;-3.60;99.90;;;;;;5064497;28;20040;-45
2022/03/02 03:15:27;;;;;;;16.05;7.30;;;-3.60;99.90;;;;;;5084038;28;20066;-45
2022/03/02 03:18:52;;;;;;;15.55;7.30;;;-3.50;99.90;;;;;;5086009;28;20070;-47
2022/03/02 03:22:23;;;;;;;11.38;5.22;;;-3.50;99.90;;;;;;5076538;28;20036;-46
2022/03/02 03:25:49;;;;;;;15.05;6.68;;;-3.40;99.90;;;;;;5076354;28;20122;-47
2022/03/02 03:29:14;;;;;;;21.02;8.25;;;-3.40;99.90;;;;;;5089366;28;20385;-50
2022/03/02 03:32:39;;;;;;;18.80;7.63;;;-3.30;99.90;;;;;;5082166;28;20039;-49
2022/03/02 03:36:05;;;;;;;15.15;7.00;;;-3.30;99.90;;;;;;5076559;28;20059;-49
2022/03/02 03:39:30;;;;;;;16.35;6.95;;;-3.30;99.90;;;;;;5078434;28;20479;-50
2022/03/02 03:42:55;;;;;;;13.73;6.10;;;-3.30;99.90;;;;;;5074436;28;20076;-46
2022/03/02 03:46:21;;;;;;;14.38;6.45;;;-3.30;99.90;;;;;;5069750;28;20048;-49
2022/03/02 03:49:46;;;;;;;17.83;8.48;;;-3.20;99.90;;;;;;5078224;28;20115;-47
2022/03/02 03:53:11;;;;;;;16.83;6.78;;;-3.20;99.90;;;;;;5077961;28;20062;-47
2022/03/02 03:56:37;;;;;;;20.13;7.95;;;-3.10;99.90;;;;;;5067815;28;20392;-47
2022/03/02 04:00:02;;;;;;;20.02;7.45;;;-3.10;99.90;;;;;;5078036;28;20072;-47
2022/03/02 04:03:27;;;;;;;21.15;9.13;;;-3.00;99.90;;;;;;5085627;28;20055;-47
2022/03/02 04:06:53;;;;;;;18.45;7.68;;;-3.00;99.90;;;;;;5068651;28;20436;-47
2022/03/02 04:10:18;;;;;;;19.92;7.93;;;-2.90;99.90;;;;;;5048863;28;20150;-48
2022/03/02 04:13:44;;;;;;;19.08;9.75;;;-2.90;99.90;;;;;;5077332;28;20039;-46
2022/03/02 04:17:09;;;;;;;17.60;8.68;;;-2.80;99.90;;;;;;5062776;28;20139;-47
2022/03/02 04:20:34;;;;;;;23.85;9.73;;;-2.70;99.90;;;;;;5076147;28;20040;-49
2022/03/02 04:24:00;;;;;;;16.70;8.13;;;-2.70;99.90;;;;;;5088398;28;20032;-48
2022/03/02 04:27:25;;;;;;;16.92;7.32;;;-2.60;99.90;;;;;;5077503;28;20080;-46
2022/03/02 04:30:51;;;;;;;18.85;9.07;;;-2.60;99.90;;;;;;5080145;28;20032;-47
2022/03/02 04:34:16;;;;;;;17.05;7.25;;;-2.60;99.90;;;;;;5088504;28;20047;-46
2022/03/02 04:37:41;;;;;;;20.30;9.40;;;-2.60;99.90;;;;;;5083390;28;20039;-49
2022/03/02 04:41:07;;;;;;;29.88;11.07;;;-2.50;99.90;;;;;;5079509;28;20028;-52
2022/03/02 04:44:32;;;;;;;30.60;11.02;;;-2.50;99.90;;;;;;5049379;28;20037;-49
2022/03/02 04:47:57;;;;;;;22.17;9.02;;;-2.50;99.90;;;;;;5084891;28;20519;-48
2022/03/02 04:51:23;;;;;;;19.58;8.68;;;-2.50;99.90;;;;;;5072399;28;20037;-51
2022/03/02 04:55:06;;;;;;;33.92;12.18;;;-2.50;99.90;;;;;;5088918;28;20036;-47
2022/03/02 04:58:32;;;;;;;22.80;9.30;;;-2.50;99.90;;;;;;5092001;28;20036;-47
2022/03/02 05:01:57;;;;;;;18.02;8.27;;;-2.50;99.90;;;;;;5067881;28;20388;-48
2022/03/02 05:04:43;;;;;;;16.70;7.43;;;-2.50;99.90;;;;;;5052080;28;20040;-53
2022/03/02 05:07:08;;;;;;;23.60;11.10;;;-2.50;99.90;;;;;;5076122;28;20047;-51
2022/03/02 05:09:34;;;;;;;25.50;10.45;;;-2.40;99.90;;;;;;5092429;28;20035;-50
2022/03/02 05:12:02;;;;;;;24.92;9.88;;;-2.50;99.90;;;;;;5090760;28;20451;-50
2022/03/02 05:14:28;;;;;;;29.70;13.18;;;-2.50;99.90;;;;;;5092161;28;20024;-53
2022/03/02 05:16:53;;;;;;;19.65;8.98;;;-2.50;99.90;;;;;;5090391;28;20109;-53
2022/03/02 05:19:19;;;;;;;26.85;11.88;;;-2.50;99.90;;;;;;5074069;28;20040;-52
2022/03/02 05:21:44;;;;;;;24.08;10.85;;;-2.50;99.90;;;;;;5090351;28;20345;-52
2022/03/02 05:24:10;;;;;;;28.83;11.90;;;-2.50;99.90;;;;;;5092089;28;20059;-49
2022/03/02 05:26:35;;;;;;;25.52;11.27;;;-2.50;99.90;;;;;;5090080;28;20078;-52
2022/03/02 05:29:01;;;;;;;28.55;12.60;;;-2.40;99.90;;;;;;5092428;28;20149;-52
2022/03/02 05:31:27;;;;;;;27.08;12.18;;;-2.50;99.90;;;;;;5089958;28;20027;-56
2022/03/02 05:33:52;;;;;;;26.38;10.57;;;-2.50;99.90;;;;;;5091969;28;20107;-53
2022/03/02 05:36:19;;;;;;;26.55;11.13;;;-2.40;99.90;;;;;;5090082;28;20149;-53
2022/03/02 05:38:44;;;;;;;28.58;11.75;;;-2.40;99.90;;;;;;5092074;28;20031;-50
2022/03/02 05:41:10;;;;;;;22.67;10.85;;;-2.40;99.90;;;;;;5089975;28;20028;-53
2022/03/02 05:43:36;;;;;;;28.90;11.15;;;-2.40;99.90;;;;;;5067342;28;20126;-53
2022/03/02 05:46:02;;;;;;;30.63;12.63;;;-2.30;99.90;;;;;;5089576;28;20399;-54
2022/03/02 05:48:28;;;;;;;20.17;10.05;;;-2.30;99.90;;;;;;5091240;28;20042;-54
2022/03/02 05:50:53;;;;;;;26.10;12.75;;;-2.30;99.90;;;;;;5089452;28;20024;-50
2022/03/02 05:53:19;;;;;;;27.63;13.18;;;-2.20;99.90;;;;;;5091830;28;20026;-55
2022/03/02 05:55:44;;;;;;;25.45;11.50;;;-2.20;99.90;;;;;;5089495;28;20040;-54
2022/03/02 05:58:10;;;;;;;20.65;10.50;;;-2.10;99.90;;;;;;5088569;28;20069;-53
2022/03/02 06:00:36;;;;;;;26.85;11.75;;;-2.10;99.90;;;;;;5091644;28;20339;-51
2022/03/02 06:03:02;;;;;;;23.95;12.02;;;-2.10;99.90;;;;;;5089280;28;20220;-49
2022/03/02 06:05:27;;;;;;;18.63;9.57;;;-2.10;99.90;;;;;;5091428;28;20188;-56
2022/03/02 06:07:53;;;;;;;25.85;12.65;;;-2.00;99.90;;;;;;5089343;28;20675;-51
2022/03/02 06:10:19;;;;;;;20.35;9.90;;;-2.00;99.90;;;;;;5091389;28;20414;-54
2022/03/02 06:12:45;;;;;;;24.83;11.90;;;-1.90;99.90;;;;;;5089210;28;20107;-53
2022/03/02 06:15:12;;;;;;;28.88;11.30;;;-1.90;99.90;;;;;;5091355;28;20479;-55
2022/03/02 06:17:39;;;;;;;19.98;10.35;;;-1.80;99.90;;;;;;5088968;28;20028;-51
2022/03/02 06:20:05;;;;;;;24.25;10.52;;;-1.80;99.90;;;;;;5091410;28;20054;-53
2022/03/02 06:22:31;;;;;;;26.83;11.80;;;-1.70;99.90;;;;;;5088858;28;20073;-50
2022/03/02 06:24:57;;;;;;;23.88;10.18;;;-1.60;99.90;;;;;;5090910;28;20044;-55
2022/03/02 06:27:23;;;;;;;27.45;11.27;;;-1.60;99.90;;;;;;5090848;28;20067;-52
2022/03/02 06:29:48;;;;;;;24.40;11.48;;;-1.50;99.90;;;;;;5088645;28;20040;-50
2022/03/02 06:32:15;;;;;;;24.92;11.18;;;-1.30;99.90;;;;;;5090760;28;20050;-54
2022/03/02 06:34:41;;;;;;;28.00;12.70;;;-1.00;99.90;;;;;;5069986;28;20098;-55
2022/03/02 06:37:06;;;;;;;32.35;13.02;;;-0.80;99.90;;;;;;5090108;28;20492;-53
2022/03/02 06:39:32;;;;;;;35.22;14.30;;;-0.70;99.90;;;;;;5071443;28;20044;-56
2022/03/02 06:42:04;;;;;;;25.67;12.45;;;-0.70;99.90;;;;;;5089932;28;20511;-54
2022/03/02 06:44:39;;;;;;;27.80;12.77;;;-0.70;99.90;;;;;;5071317;28;20025;-53
2022/03/02 06:47:09;;;;;;;29.70;14.65;;;-0.70;99.90;;;;;;5050336;28;20063;-53
2022/03/02 06:50:08;;;;;;;34.95;15.00;;;-0.70;99.90;;;;;;5070288;28;20029;-51
2022/03/02 06:52:39;;;;;;;31.85;14.45;;;-0.70;99.90;;;;;;5063699;28;20064;-55
2022/03/02 06:55:14;;;;;;;27.50;13.85;;;-0.70;99.90;;;;;;5061493;28;20074;-51
2022/03/02 06:57:40;;;;;;;25.67;13.60;;;-0.60;99.90;;;;;;5047804;28;20028;-53
2022/03/02 07:00:16;;;;;;;29.38;14.63;;;-0.60;99.90;;;;;;5078227;28;20058;-51
2022/03/02 07:03:10;;;;;;;34.08;16.25;;;-0.50;99.90;;;;;;5087539;28;20032;-54
2022/03/02 07:05:37;;;;;;;36.50;17.02;;;-0.50;99.90;;;;;;5085460;28;20040;-54
2022/03/02 07:08:04;;;;;;;36.47;16.92;;;-0.40;99.90;;;;;;5087735;28;20032;-52
2022/03/02 07:10:35;;;;;;;40.05;16.95;;;-0.40;99.90;;;;;;5083665;28;20032;-50
2022/03/02 07:13:03;;;;;;;39.00;19.90;;;-0.30;99.90;;;;;;5087911;28;20351;-53
2022/03/02 07:15:31;;;;;;;38.55;17.40;;;-0.20;99.90;;;;;;5085036;28;20407;-53
2022/03/02 07:17:59;;;;;;;35.65;17.33;;;-0.10;99.90;;;;;;5083993;28;20056;-52
2022/03/02 07:20:26;;;;;;;38.42;17.23;;;-0.10;99.90;;;;;;5070016;28;20024;-53
2022/03/02 07:22:53;;;;;;;43.35;17.90;;;0.00;99.90;;;;;;5073116;28;20032;-50
2022/03/02 07:25:25;;;;;;;31.40;17.33;;;0.00;99.90;;;;;;5067728;28;20998;-55
2022/03/02 07:27:54;;;;;;;34.80;15.93;;;0.10;99.90;;;;;;5070331;28;20099;-50
2022/03/02 07:30:20;;;;;;;37.42;17.20;;;0.20;99.90;;;;;;5086749;28;20063;-54
2022/03/02 07:32:46;;;;;;;34.95;17.42;;;0.20;99.90;;;;;;5086458;28;20278;-52
2022/03/02 07:35:15;;;;;;;34.28;17.35;;;0.40;99.90;;;;;;5088345;28;20142;-51
2022/03/02 07:37:42;;;;;;;30.25;15.18;;;0.50;99.90;;;;;;5086620;28;20028;-52
2022/03/02 07:40:10;;;;;;;27.92;13.95;;;0.60;99.90;;;;;;5077909;28;20043;-53
2022/03/02 07:42:36;;;;;;;28.92;15.25;;;0.70;99.90;;;;;;5085993;28;20766;-55
2022/03/02 07:45:03;;;;;;;40.25;18.05;;;0.80;99.90;;;;;;5088553;28;20373;-54
2022/03/02 07:47:29;;;;;;;32.58;15.98;;;0.90;99.90;;;;;;5086073;28;20042;-51
2022/03/02 07:49:55;;;;;;;30.80;16.33;;;1.00;99.90;;;;;;5088366;28;20020;-53
2022/03/02 07:52:25;;;;;;;31.58;16.10;;;1.10;98.90;;;;;;5086045;28;20081;-54
2022/03/02 07:54:54;;;;;;;28.35;14.55;;;1.20;96.80;;;;;;5088187;28;20395;-54
2022/03/02 07:57:21;;;;;;;39.00;19.42;;;1.40;95.70;;;;;;5086026;28;20051;-54
2022/03/02 07:59:47;;;;;;;30.73;16.85;;;1.50;94.40;;;;;;5088176;28;20013;-53
2022/03/02 08:02:13;;;;;;;30.60;16.13;;;1.70;93.80;;;;;;5085912;28;20060;-51
2022/03/02 08:04:41;;;;;;;31.65;15.73;;;1.90;90.70;;;;;;5087708;28;20500;-50
2022/03/02 08:07:07;;;;;;;34.38;17.63;;;2.20;87.60;;;;;;5085961;28;20084;-56
2022/03/02 08:09:34;;;;;;;36.35;18.45;;;2.50;86.80;;;;;;5087852;28;20457;-55
2022/03/02 08:12:01;;;;;;;36.42;18.88;;;2.70;83.40;;;;;;5085679;28;20032;-53
2022/03/02 08:14:31;;;;;;;35.88;17.27;;;3.00;75.50;;;;;;5088132;28;20020;-55
2022/03/02 08:16:58;;;;;;;33.25;15.75;;;3.30;73.40;;;;;;5085771;28;20032;-51
2022/03/02 08:19:24;;;;;;;39.95;19.52;;;3.80;76.40;;;;;;5087849;28;20020;-50
2022/03/02 08:22:03;;;;;;;33.67;16.67;;;4.20;70.50;;;;;;5086087;28;20036;-52
2022/03/02 08:24:30;;;;;;;34.00;15.63;;;4.50;63.70;;;;;;5087660;28;20048;-55
2022/03/02 08:26:58;;;;;;;29.27;15.40;;;4.80;54.90;;;;;;5077124;28;20085;-53
2022/03/02 08:29:26;;;;;;;31.95;17.65;;;5.30;58.70;;;;;;5067391;28;20025;-56
2022/03/02 08:31:57;;;;;;;32.33;16.08;;;5.80;55.50;;;;;;5073170;28;20052;-55
2022/03/02 08:34:23;;;;;;;34.08;17.73;;;6.30;57.20;;;;;;5087726;28;20032;-57
2022/03/02 08:36:50;;;;;;;34.65;17.67;;;6.60;48.50;;;;;;5085502;28;20032;-55
2022/03/02 08:39:17;;;;;;;34.30;18.08;;;7.00;46.30;;;;;;5087649;28;20020;-57
2022/03/02 08:41:42;;;;;;;32.83;18.42;;;7.20;44.50;;;;;;5087417;28;20032;-56
2022/03/02 08:44:11;;;;;;;33.60;17.17;;;7.60;45.30;;;;;;5085804;28;20020;-57
2022/03/02 08:46:36;;;;;;;31.77;17.70;;;7.60;40.20;;;;;;5087333;28;20619;-56
2022/03/02 08:49:02;;;;;;;37.30;19.65;;;7.70;39.30;;;;;;5066644;28;20107;-57
2022/03/02 08:51:28;;;;;;;35.22;16.73;;;7.50;35.20;;;;;;5086875;28;20081;-56
2022/03/02 08:53:58;;;;;;;30.92;17.98;;;7.30;38.50;;;;;;5067413;28;20503;-55
2022/03/02 08:56:25;;;;;;;33.83;18.33;;;6.90;36.40;;;;;;5087643;28;20111;-55
2022/03/02 08:58:52;;;;;;;32.53;18.50;;;6.40;37.30;;;;;;5063332;28;20029;-57
2022/03/02 09:01:19;;;;;;;34.00;19.30;;;6.10;39.70;;;;;;5067609;28;20434;-56
2022/03/02 09:03:47;;;;;;;33.67;18.42;;;6.00;37.20;;;;;;5084701;28;20495;-58
2022/03/02 09:06:15;;;;;;;33.78;17.85;;;6.30;40.20;;;;;;5087070;28;20119;-56
2022/03/02 09:08:40;;;;;;;31.45;17.25;;;6.60;40.90;;;;;;5085428;28;20116;-55
2022/03/02 09:11:07;;;;;;;36.95;18.88;;;6.60;34.80;;;;;;5087719;28;20106;-56
2022/03/02 09:13:32;;;;;;;38.58;20.02;;;6.40;36.90;;;;;;5085347;28;20031;-54
2022/03/02 09:15:58;;;;;;;28.45;16.38;;;6.40;37.80;;;;;;5087608;28;20024;-55
2022/03/02 09:18:23;;;;;;;30.80;17.42;;;6.40;34.30;;;;;;5085016;28;20023;-57
2022/03/02 09:20:58;;;;;;;32.58;16.83;;;6.30;36.40;;;;;;5087550;28;20028;-56
2022/03/02 09:23:31;;;;;;;31.38;17.35;;;6.60;36.90;;;;;;5052272;28;20119;-57
2022/03/02 09:26:04;;;;;;;33.85;16.95;;;7.20;36.50;;;;;;5071131;28;20078;-57
2022/03/02 09:28:34;;;;;;;38.92;16.83;;;8.20;33.70;;;;;;5082987;28;20542;-56
2022/03/02 09:31:03;;;;;;;34.55;17.50;;;9.50;29.00;;;;;;5067241;28;20013;-57
2022/03/02 09:33:30;;;;;;;34.17;17.33;;;10.80;27.80;;;;;;5090568;28;20028;-56
2022/03/02 09:35:56;;;;;;;30.42;17.08;;;12.00;20.30;;;;;;5069574;28;20042;-56
2022/03/02 09:38:24;;;;;;;33.28;18.83;;;13.20;20.00;;;;;;5090330;28;20193;-57
2022/03/02 09:40:50;;;;;;;32.05;17.13;;;14.50;14.80;;;;;;5070444;28;20024;-57
2022/03/02 09:43:21;;;;;;;29.25;17.75;;;14.80;13.20;;;;;;5089981;28;20068;-57
2022/03/02 09:45:52;;;;;;;36.35;20.70;;;14.60;8.60;;;;;;5066413;28;20036;-57
2022/03/02 09:48:29;;;;;;;30.45;17.20;;;14.90;7.90;;;;;;5050446;28;20028;-58
2022/03/02 09:51:02;;;;;;;30.40;17.38;;;15.30;8.20;;;;;;5067561;28;20036;-55
2022/03/02 09:53:30;;;;;;;28.55;16.20;;;16.50;9.60;;;;;;5050281;28;20055;-58
2022/03/02 09:56:01;;;;;;;28.40;17.58;;;16.40;6.40;;;;;;5068416;28;20031;-56
2022/03/02 09:58:27;;;;;;;29.63;16.88;;;16.60;6.70;;;;;;5050363;28;20033;-57
2022/03/02 10:00:55;;;;;;;25.98;14.32;;;16.40;7.60;;;;;;5064920;28;20040;-55
2022/03/02 10:03:25;;;;;;;22.73;13.60;;;17.00;8.10;;;;;;5089971;28;20377;-57
2022/03/02 10:05:52;;;;;;;18.52;12.98;;;17.30;7.30;;;;;;5061337;28;20372;-55
2022/03/02 10:08:20;;;;;;;25.58;15.02;;;17.10;7.90;;;;;;5089347;28;20058;-57
2022/03/02 10:10:48;;;;;;;24.30;14.95;;;15.10;5.60;;;;;;5076364;28;20020;-55
2022/03/02 10:13:16;;;;;;;25.50;13.88;;;13.60;6.80;;;;;;5089753;28;20036;-55
2022/03/02 10:15:44;;;;;;;25.00;15.85;;;12.30;9.60;;;;;;5076586;28;20549;-57
2022/03/02 10:18:11;;;;;;;23.63;13.52;;;11.70;13.00;;;;;;5089631;28;20290;-53
2022/03/02 10:20:43;;;;;;;20.25;12.80;;;11.40;14.20;;;;;;5087726;28;20031;-55
2022/03/02 10:23:34;;;;;;;25.52;13.73;;;11.30;14.30;;;;;;5056187;28;20143;-56
2022/03/02 10:26:15;;;;;;;24.38;14.05;;;11.00;13.80;;;;;;5087470;28;20070;-57
2022/03/02 10:29:19;;;;;;;24.02;14.40;;;10.90;14.80;;;;;;5043048;28;20056;-55
2022/03/02 10:32:16;;;;;;;21.80;11.98;;;10.60;11.70;;;;;;5059911;28;20158;-55
2022/03/02 10:34:50;;;;;;;22.20;11.48;;;10.30;13.80;;;;;;5049442;28;20033;-57
2022/03/02 10:37:41;;;;;;;19.30;11.27;;;10.30;13.40;;;;;;5069144;28;20438;-56
2022/03/02 10:40:13;;;;;;;22.52;12.85;;;9.90;13.80;;;;;;5048607;28;20028;-56
2022/03/02 10:42:57;;;;;;;19.27;11.60;;;9.50;14.00;;;;;;5089767;28;20020;-56
2022/03/02 10:45:24;;;;;;;23.73;14.15;;;9.40;16.30;;;;;;5052731;28;20343;-55
2022/03/02 10:48:11;;;;;;;24.27;13.68;;;8.90;14.10;;;;;;5089507;28;20075;-55
2022/03/02 10:50:38;;;;;;;22.83;13.05;;;8.50;15.20;;;;;;5087900;28;20028;-56
2022/03/02 10:53:07;;;;;;;24.90;13.73;;;8.30;17.00;;;;;;5089553;28;20487;-55
2022/03/02 10:55:34;;;;;;;18.67;11.23;;;8.00;15.40;;;;;;5087011;28;20032;-56
2022/03/02 10:58:02;;;;;;;23.10;12.70;;;8.00;17.50;;;;;;5089624;28;20024;-56
2022/03/02 11:00:28;;;;;;;17.75;11.07;;;7.80;16.70;;;;;;5087149;28;20500;-53
2022/03/02 11:02:57;;;;;;;21.92;11.10;;;7.80;17.00;;;;;;5067131;28;20060;-54
2022/03/02 11:05:24;;;;;;;25.08;12.00;;;7.80;16.60;;;;;;5090365;28;20058;-82
2022/03/02 11:07:50;;;;;;;17.50;10.80;;;7.60;17.10;;;;;;5071117;28;20140;-83
2022/03/02 11:10:19;;;;;;;18.90;10.68;;;7.40;16.40;;;;;;5090251;28;20456;-82
2022/03/02 11:12:47;;;;;;;21.42;11.73;;;7.40;16.70;;;;;;5071863;28;20082;-83
2022/03/02 11:15:14;;;;;;;22.85;11.95;;;7.40;16.70;;;;;;5090865;28;20728;-82
2022/03/02 11:17:58;;;;;;;17.25;9.50;;;7.20;16.20;;;;;;5072537;28;20104;-83
2022/03/02 11:20:28;;;;;;;18.20;10.73;;;7.10;13.20;;;;;;5090831;28;20479;-82
2022/03/02 11:23:00;;;;;;;16.30;9.63;;;7.10;13.40;;;;;;5068449;28;20036;-82
2022/03/02 11:25:46;;;;;;;19.50;10.77;;;7.00;15.20;;;;;;5091272;28;20519;-82
2022/03/02 11:28:15;;;;;;;18.80;9.55;;;7.10;14.50;;;;;;5084017;28;20117;-81
2022/03/02 11:30:46;;;;;;;16.58;9.27;;;7.10;15.00;;;;;;5088878;28;20028;-82
2022/03/02 11:33:12;;;;;;;21.58;11.05;;;7.20;13.90;;;;;;5071652;28;20496;-81
2022/03/02 11:35:37;;;;;;;19.45;10.02;;;7.20;13.50;;;;;;5090090;28;20077;-82
2022/03/02 11:38:05;;;;;;;19.23;10.43;;;7.10;13.80;;;;;;5079002;28;20077;-82
2022/03/02 11:40:45;;;;;;;20.42;10.93;;;7.10;13.10;;;;;;5093357;28;20069;-80
2022/03/02 11:43:16;;;;;;;20.52;10.05;;;7.20;12.90;;;;;;5091394;28;20020;-81
2022/03/02 11:45:42;;;;;;;15.38;8.32;;;7.30;14.40;;;;;;5092989;28;20071;-79
2022/03/02 11:48:13;;;;;;;16.33;8.20;;;7.40;14.50;;;;;;5090879;28;20052;-81
2022/03/02 11:51:00;;;;;;;12.98;7.63;;;7.40;11.10;;;;;;5093214;28;20031;-81
2022/03/02 11:53:32;;;;;;;13.85;7.28;;;7.40;13.80;;;;;;5068634;28;20023;-81
2022/03/02 11:56:00;;;;;;;12.20;7.13;;;7.40;14.50;;;;;;5092818;28;20031;-81
2022/03/02 11:58:26;;;;;;;15.65;6.88;;;7.40;14.70;;;;;;5091039;28;20043;-81
2022/03/02 12:00:51;;;;;;;13.70;8.30;;;7.40;14.80;;;;;;5075045;28;20044;-81
2022/03/02 12:03:17;;;;;;;14.55;7.70;;;7.50;12.20;;;;;;5090939;28;20019;-81
2022/03/02 12:05:43;;;;;;;14.18;7.65;;;7.60;13.70;;;;;;5072456;28;20033;-80
2022/03/02 12:08:13;;;;;;;17.10;7.78;;;7.60;14.00;;;;;;5091725;28;20085;-85
2022/03/02 12:10:51;;;;;;;14.68;8.20;;;7.70;13.60;;;;;;5090818;28;20089;-74
2022/03/02 12:13:17;;;;;;;20.48;10.77;;;7.60;10.30;;;;;;5049422;28;20037;-75
2022/03/02 12:15:48;;;;;;;18.08;11.02;;;7.50;10.70;;;;;;5069501;28;20025;-78
2022/03/02 12:18:16;;;;;;;17.80;9.55;;;7.50;11.90;;;;;;5089490;28;20066;-80
2022/03/02 12:20:54;;;;;;;12.93;8.40;;;7.50;12.70;;;;;;5070735;28;20047;-79
2022/03/02 12:23:24;;;;;;;14.23;7.95;;;7.60;12.20;;;;;;5057541;28;20043;-78
2022/03/02 12:25:50;;;;;;;17.67;10.00;;;7.60;10.30;;;;;;5069621;28;20036;-73
2022/03/02 12:28:17;;;;;;;17.80;9.98;;;7.50;12.10;;;;;;5081978;28;20491;-81
2022/03/02 12:30:43;;;;;;;16.52;9.48;;;7.40;11.40;;;;;;5070294;28;20587;-73
2022/03/02 12:33:09;;;;;;;14.32;8.32;;;7.40;11.70;;;;;;5087559;28;20115;-72
2022/03/02 12:35:35;;;;;;;17.00;9.80;;;7.40;11.20;;;;;;5071035;28;20112;-77
2022/03/02 12:38:05;;;;;;;15.23;9.18;;;7.40;11.70;;;;;;5088532;28;20070;-73
2022/03/02 12:40:39;;;;;;;19.00;10.27;;;7.40;11.70;;;;;;5068361;28;20029;-70
2022/03/02 12:43:09;;;;;;;15.57;8.48;;;7.50;10.30;;;;;;5048397;28;20037;-77
2022/03/02 12:45:39;;;;;;;11.82;6.82;;;7.50;11.10;;;;;;5069348;28;20020;-77
2022/03/02 12:48:45;;;;;;;14.05;8.07;;;7.50;12.00;;;;;;5088483;28;20032;-71
2022/03/02 12:52:10;;;;;;;17.67;9.20;;;7.50;10.50;;;;;;5086529;28;20483;-72
2022/03/02 12:55:36;;;;;;;15.70;8.30;;;7.50;11.40;;;;;;5074780;28;20093;-69
2022/03/02 12:59:01;;;;;;;18.63;9.27;;;7.40;12.30;;;;;;5048928;28;20037;-82
2022/03/02 13:02:29;;;;;;;19.80;11.10;;;7.40;14.90;;;;;;5087644;28;20290;-74
2022/03/02 13:05:57;;;;;;;27.95;15.00;;;7.40;15.50;;;;;;5071506;28;20392;-81
2022/03/02 13:09:32;;;;;;;21.27;12.15;;;7.40;16.40;;;;;;5083301;28;20129;-81
2022/03/02 13:13:08;;;;;;;23.13;13.00;;;7.50;15.40;;;;;;5085423;28;20032;-76
2022/03/02 13:16:45;;;;;;;21.48;10.88;;;7.40;16.40;;;;;;5083001;28;20036;-74
2022/03/02 13:20:09;;;;;;;20.85;11.13;;;7.50;17.00;;;;;;5085337;28;20458;-73
2022/03/02 13:23:40;;;;;;;21.92;12.00;;;7.60;17.30;;;;;;5053527;28;20052;-73
2022/03/02 13:27:00;;;;;;;19.13;10.75;;;7.60;16.30;;;;;;5089024;28;20071;-72
2022/03/02 13:30:36;;;;;;;21.00;12.68;;;7.70;16.40;;;;;;5057842;28;20036;-77
2022/03/02 13:34:02;;;;;;;23.55;11.95;;;7.60;15.50;;;;;;5053339;28;20037;-84
2022/03/02 13:37:30;;;;;;;17.52;10.90;;;7.50;15.80;;;;;;5082817;28;20036;-84
2022/03/02 13:40:34;;;;;;;20.00;10.85;;;7.50;16.10;;;;;;5072139;28;20024;-84
2022/03/02 13:43:19;;;;;;;19.52;10.98;;;7.40;16.50;;;;;;5053447;28;20044;-85
2022/03/02 13:46:05;;;;;;;19.50;11.48;;;7.40;16.80;;;;;;5066844;28;20064;-84
2022/03/02 13:49:30;;;;;;;20.98;11.27;;;7.30;15.40;;;;;;5053309;28;20051;-84
2022/03/02 13:52:28;;;;;;;20.83;10.90;;;7.30;15.10;;;;;;5053636;28;20484;-85
2022/03/02 13:55:14;;;;;;;19.15;10.80;;;7.20;15.20;;;;;;5068249;28;20090;-86
2022/03/02 13:58:39;;;;;;;19.80;11.23;;;7.20;15.80;;;;;;5053750;28;20131;-85
2022/03/02 14:02:07;;;;;;;20.77;12.32;;;7.20;16.60;;;;;;5087301;28;20036;-85
2022/03/02 14:05:12;;;;;;;;;;;7.10;15.30;;;;;;5062113;28;20036;-84
2022/03/02 14:08:44;;;;;;;20.00;10.90;;;7.00;15.40;;;;;;5093303;28;19981;-83
2022/03/02 14:11:39;;;;;;;19.70;9.65;;;7.00;16.10;;;;;;5088268;28;20028;-83
2022/03/02 14:15:04;;;;;;;21.85;11.70;;;7.00;16.20;;;;;;5054039;28;20037;-83
2022/03/02 14:18:29;;;;;;;23.50;12.93;;;7.00;15.90;;;;;;5092982;28;20032;-85
2022/03/02 14:21:54;;;;;;;19.88;11.05;;;6.90;15.90;;;;;;5067858;28;20515;-86
2022/03/02 14:25:21;;;;;;;19.60;11.15;;;7.00;16.50;;;;;;5087425;28;20066;-84
2022/03/02 14:28:45;;;;;;;18.02;9.73;;;7.00;15.60;;;;;;5046712;28;20045;-85
2022/03/02 14:32:10;;;;;;;19.15;9.73;;;6.90;15.90;;;;;;5084548;28;20054;-84
2022/03/02 14:35:36;;;;;;;20.35;10.52;;;6.80;16.10;;;;;;5082323;28;20036;-85